Terminal Aerodrome Forecast
Issued by NWS

Home | Current Version | Previous Version | Text Only | Print | Product List | Glossary On
Versions: 1 2 3 4 5 6 7 8 9 10 11 12 13
000
FTUS45 KPSR 211100
TAFIWA
TAF
KIWA 211120Z 2112/2212 12005KT P6SM SKC
     FM211900 27006KT P6SM SKC
     FM220600 12006KT P6SM FEW250
      AMD LTD TO CLD VIS AND WIND TIL 211300=

USA.gov is the U.S. government's official web portal to all federal, state and local government web resources and services.